createdAt,value
2018-04-01T00:02:10.674Z,6.40
2018-04-01T00:04:49.969Z,6.40
2018-04-01T00:07:30.028Z,6.40
2018-04-01T00:10:10.262Z,6.40
2018-04-01T00:12:49.572Z,6.40
2018-04-01T00:15:28.825Z,6.30
2018-04-01T00:18:08.281Z,6.30
2018-04-01T00:20:48.224Z,6.30
2018-04-01T00:23:27.524Z,6.30
2018-04-01T00:26:06.993Z,6.40
2018-04-01T00:28:46.299Z,6.40
2018-04-01T00:31:25.752Z,6.40
2018-04-01T00:34:05.101Z,6.50
2018-04-01T00:36:44.463Z,6.40
2018-04-01T00:39:23.777Z,6.40
2018-04-01T00:42:03.775Z,6.10
2018-04-01T00:44:43.096Z,6.00
2018-04-01T00:47:22.392Z,6.00
2018-04-01T00:50:01.897Z,6.00
2018-04-01T00:52:41.117Z,6.00
2018-04-01T00:55:20.261Z,6.10
2018-04-01T00:57:59.513Z,6.10
2018-04-01T01:00:38.925Z,6.10
2018-04-01T01:03:18.276Z,6.10
2018-04-01T01:05:57.651Z,6.20
2018-04-01T01:08:36.998Z,6.20
2018-04-01T01:11:16.295Z,6.20
2018-04-01T01:13:55.689Z,6.30
2018-04-01T01:16:34.981Z,6.30
2018-04-01T01:19:14.397Z,6.30
2018-04-01T01:21:53.667Z,6.30
2018-04-01T01:24:32.993Z,6.20
2018-04-01T01:27:12.285Z,6.20
2018-04-01T01:29:51.556Z,6.20
2018-04-01T01:32:31.750Z,6.30
2018-04-01T01:35:10.890Z,6.30
2018-04-01T01:37:50.384Z,6.30
2018-04-01T01:40:29.636Z,6.40
2018-04-01T01:43:09.069Z,6.40
2018-04-01T01:45:48.353Z,6.50
2018-04-01T01:48:27.779Z,6.50
2018-04-01T01:51:06.999Z,6.50
2018-04-01T01:53:46.414Z,6.50
2018-04-01T01:56:25.700Z,6.40
2018-04-01T01:59:05.019Z,6.40
2018-04-01T02:01:44.544Z,6.40
2018-04-01T02:04:23.879Z,6.50
2018-04-01T02:07:03.073Z,6.40
2018-04-01T02:09:43.192Z,6.40
2018-04-01T02:12:22.518Z,6.40
2018-04-01T02:15:01.801Z,6.50
2018-04-01T02:17:41.237Z,6.50
2018-04-01T02:20:20.601Z,6.40
2018-04-01T02:22:59.896Z,6.40
2018-04-01T02:25:40.020Z,6.30
2018-04-01T02:28:19.265Z,6.30
2018-04-01T02:31:00.148Z,6.20
2018-04-01T02:33:40.173Z,6.30
2018-04-01T02:36:19.484Z,6.30
2018-04-01T02:38:58.822Z,6.30
2018-04-01T02:41:38.216Z,6.40
2018-04-01T02:44:17.483Z,6.40
2018-04-01T02:46:57.010Z,6.50
2018-04-01T02:49:36.435Z,6.50
2018-04-01T02:52:15.687Z,6.60
2018-04-01T02:54:54.936Z,6.60
2018-04-01T02:57:34.205Z,6.70
2018-04-01T03:00:13.476Z,6.70
2018-04-01T03:02:52.959Z,6.80
2018-04-01T03:05:32.213Z,6.80
2018-04-01T03:08:11.508Z,6.90
2018-04-01T03:10:50.747Z,6.90
2018-04-01T03:13:30.166Z,6.90
2018-04-01T03:16:09.573Z,6.90
2018-04-01T03:18:49.001Z,6.90
2018-04-01T03:21:29.051Z,6.80
2018-04-01T03:24:08.538Z,6.80
2018-04-01T03:26:47.749Z,6.80
2018-04-01T03:29:27.195Z,6.90
2018-04-01T03:32:07.455Z,7.00
2018-04-01T03:34:46.915Z,7.00
2018-04-01T03:37:26.248Z,6.90
2018-04-01T03:40:05.488Z,6.90
2018-04-01T03:42:44.893Z,6.80
2018-04-01T03:45:24.079Z,6.90
2018-04-01T03:48:03.507Z,6.90
2018-04-01T03:50:42.795Z,6.80
2018-04-01T03:53:22.060Z,6.90
2018-04-01T03:56:01.468Z,6.90
2018-04-01T03:58:40.729Z,6.90
2018-04-01T04:01:19.941Z,6.80
2018-04-01T04:03:59.265Z,6.70
2018-04-01T04:06:38.622Z,6.70
2018-04-01T04:09:18.068Z,6.60
2018-04-01T04:11:57.335Z,6.70
2018-04-01T04:14:37.450Z,6.60
2018-04-01T04:17:16.727Z,6.60
2018-04-01T04:19:56.256Z,6.50
2018-04-01T04:22:35.599Z,6.50
2018-04-01T04:25:14.893Z,6.60
2018-04-01T04:27:54.276Z,6.70
2018-04-01T04:30:33.552Z,6.70
2018-04-01T04:33:12.905Z,6.70
2018-04-01T04:35:52.205Z,6.80
2018-04-01T04:38:31.587Z,6.90
2018-04-01T04:41:10.889Z,6.80
2018-04-01T04:43:50.148Z,6.80
2018-04-01T04:46:29.511Z,6.80
2018-04-01T04:49:09.561Z,6.90
2018-04-01T04:51:48.770Z,6.80
2018-04-01T04:54:28.251Z,7.00
2018-04-01T04:57:07.653Z,6.90
2018-04-01T04:59:46.860Z,6.90
2018-04-01T05:02:26.315Z,6.90
2018-04-01T05:05:05.628Z,6.90
2018-04-01T05:07:45.023Z,6.90
2018-04-01T05:10:24.294Z,6.90
2018-04-01T05:13:03.713Z,6.90
2018-04-01T05:15:43.049Z,6.90
2018-04-01T05:18:22.398Z,6.90
2018-04-01T05:21:01.637Z,6.90
2018-04-01T05:23:41.065Z,6.90
2018-04-01T05:26:20.345Z,6.90
2018-04-01T05:29:00.417Z,6.90
2018-04-01T05:31:39.860Z,6.90
2018-04-01T05:34:19.212Z,6.90
2018-04-01T05:36:58.525Z,6.90
2018-04-01T05:39:37.945Z,6.80
2018-04-01T05:42:17.293Z,6.90
2018-04-01T05:44:56.782Z,6.80
2018-04-01T05:47:36.076Z,6.80
2018-04-01T05:50:15.441Z,6.80
2018-04-01T05:52:54.777Z,6.80
2018-04-01T05:55:34.111Z,6.80
2018-04-01T05:58:13.544Z,6.80
2018-04-01T06:00:52.818Z,6.80
2018-04-01T06:03:32.135Z,6.70
2018-04-01T06:06:11.608Z,6.70
2018-04-01T06:08:51.838Z,6.80
2018-04-01T06:11:31.076Z,6.80
2018-04-01T06:14:10.314Z,7.00
2018-04-01T06:16:49.576Z,7.00
2018-04-01T06:19:28.997Z,7.00
2018-04-01T06:22:08.296Z,7.10
2018-04-01T06:24:47.682Z,7.10
2018-04-01T06:27:27.139Z,7.10
2018-04-01T06:30:06.448Z,7.20
2018-04-01T06:32:46.731Z,7.20
2018-04-01T06:35:26.002Z,7.20
2018-04-01T06:38:05.441Z,7.30
2018-04-01T06:40:44.702Z,7.30
2018-04-01T06:43:24.069Z,7.40
2018-04-01T06:46:03.390Z,7.60
2018-04-01T06:48:42.860Z,7.70
2018-04-01T06:51:22.213Z,7.80
2018-04-01T06:54:01.892Z,7.90
2018-04-01T06:56:41.913Z,8.10
2018-04-01T06:59:21.188Z,8.00
2018-04-01T07:02:00.529Z,8.10
2018-04-01T07:04:39.863Z,8.10
2018-04-01T07:07:19.340Z,8.10
2018-04-01T07:09:58.630Z,8.10
2018-04-01T07:12:37.973Z,8.00
2018-04-01T07:15:17.216Z,7.90
2018-04-01T07:17:56.560Z,7.80
2018-04-01T07:20:35.896Z,7.80
2018-04-01T07:23:15.201Z,7.80
2018-04-01T07:25:54.625Z,7.70
2018-04-01T07:28:34.662Z,7.70
2018-04-01T07:31:14.057Z,7.70
2018-04-01T07:33:53.424Z,7.70
2018-04-01T07:36:32.826Z,7.70
2018-04-01T07:39:12.091Z,7.70
2018-04-01T07:41:51.466Z,7.60
2018-04-01T07:44:30.925Z,7.70
2018-04-01T07:47:10.215Z,7.80
2018-04-01T07:49:50.382Z,7.80
2018-04-01T07:52:30.535Z,7.80
2018-04-01T07:55:10.677Z,7.90
2018-04-01T07:57:50.876Z,7.90
2018-04-01T08:00:30.193Z,7.90
2018-04-01T08:03:09.507Z,7.90
2018-04-01T08:05:49.607Z,8.00
2018-04-01T08:08:28.796Z,7.90
2018-04-01T08:11:08.847Z,7.90
2018-04-01T08:13:48.297Z,7.90
2018-04-01T08:16:28.267Z,7.90
2018-04-01T08:19:07.711Z,7.90
2018-04-01T08:21:47.055Z,7.80
2018-04-01T08:24:26.403Z,7.90
2018-04-01T08:27:05.742Z,7.90
2018-04-01T08:29:45.081Z,7.80
2018-04-01T08:32:24.468Z,7.80
2018-04-01T08:35:03.761Z,7.80
2018-04-01T08:37:43.185Z,7.80
2018-04-01T08:40:22.414Z,7.80
2018-04-01T08:43:01.785Z,7.80
2018-04-01T08:45:41.870Z,7.80
2018-04-01T08:48:21.178Z,7.80
2018-04-01T08:51:00.483Z,7.80
2018-04-01T08:53:39.747Z,7.80
2018-04-01T08:56:19.992Z,7.70
2018-04-01T08:58:59.286Z,7.70
2018-04-01T09:01:38.633Z,7.70
2018-04-01T09:04:18.045Z,7.70
2018-04-01T09:06:57.414Z,7.80
2018-04-01T09:09:37.419Z,7.80
2018-04-01T09:12:17.644Z,7.80
2018-04-01T09:14:57.169Z,7.90
2018-04-01T09:17:36.593Z,7.90
2018-04-01T09:20:15.901Z,8.00
2018-04-01T09:22:55.268Z,8.20
2018-04-01T09:25:34.497Z,8.30
2018-04-01T09:28:13.933Z,8.50
2018-04-01T09:30:54.004Z,8.60
2018-04-01T09:33:33.548Z,8.50
2018-04-01T09:36:12.991Z,8.50
2018-04-01T09:38:53.082Z,8.20
2018-04-01T09:41:32.249Z,8.10
2018-04-01T09:44:11.795Z,7.90
2018-04-01T09:46:51.108Z,7.60
2018-04-01T09:49:30.630Z,7.20
2018-04-01T09:52:09.864Z,6.90
2018-04-01T09:54:49.350Z,6.70
2018-04-01T09:57:28.498Z,6.50
2018-04-01T10:00:08.632Z,6.50
2018-04-01T10:02:36.193Z,6.40
2018-04-01T10:05:16.432Z,6.40
2018-04-01T10:07:43.951Z,6.70
2018-04-01T10:10:11.462Z,7.20
2018-04-01T10:12:38.977Z,7.90
2018-04-01T10:15:06.498Z,8.50
2018-04-01T10:17:34.788Z,8.40
2018-04-01T10:20:02.374Z,8.40
2018-04-01T10:22:29.904Z,8.40
2018-04-01T10:24:58.193Z,8.70
2018-04-01T10:27:25.712Z,8.70
2018-04-01T10:29:53.244Z,8.70
2018-04-01T10:32:20.796Z,9.10
2018-04-01T10:34:48.355Z,9.00
2018-04-01T10:37:15.874Z,9.00
2018-04-01T10:39:43.389Z,9.10
2018-04-01T10:42:10.933Z,9.20
2018-04-01T10:44:38.438Z,9.90
2018-04-01T10:47:06.740Z,9.50
2018-04-01T10:49:34.282Z,9.40
2018-04-01T10:52:01.783Z,10.10
2018-04-01T10:54:41.130Z,10.40
2018-04-01T10:57:20.497Z,9.70
2018-04-01T11:00:00.564Z,9.00
2018-04-01T11:02:39.885Z,9.10
2018-04-01T11:05:19.291Z,9.10
2018-04-01T11:07:58.698Z,9.00
2018-04-01T11:10:38.038Z,9.10
2018-04-01T11:13:17.324Z,8.90
2018-04-01T11:15:56.879Z,9.00
2018-04-01T11:18:36.202Z,9.00
2018-04-01T11:21:16.434Z,9.40
2018-04-01T11:23:55.711Z,9.40
2018-04-01T11:26:34.925Z,9.40
2018-04-01T11:29:14.432Z,9.20
2018-04-01T11:31:54.489Z,8.40
2018-04-01T11:34:33.715Z,7.00
2018-04-01T11:37:13.088Z,6.00
2018-04-01T11:39:53.120Z,5.70
2018-04-01T11:42:33.265Z,5.80
2018-04-01T11:45:13.350Z,5.70
2018-04-01T11:47:52.538Z,5.80
2018-04-01T11:50:31.932Z,5.90
2018-04-01T11:53:11.324Z,5.90
2018-04-01T11:55:50.652Z,6.10
2018-04-01T11:58:30.098Z,6.50
2018-04-01T12:01:09.508Z,6.90
2018-04-01T12:03:48.945Z,7.50
2018-04-01T12:06:28.370Z,7.60
2018-04-01T12:09:07.955Z,7.40
2018-04-01T12:11:47.236Z,7.60
2018-04-01T12:14:26.739Z,8.00
2018-04-01T12:17:06.878Z,8.10
2018-04-01T12:19:46.353Z,8.10
2018-04-01T12:22:25.655Z,8.40
2018-04-01T12:25:04.977Z,8.10
2018-04-01T12:27:45.881Z,8.00
2018-04-01T12:30:25.969Z,7.90
2018-04-01T12:33:05.251Z,7.90
2018-04-01T12:35:44.713Z,8.40
2018-04-01T12:38:23.985Z,8.80
2018-04-01T12:41:03.152Z,8.90
2018-04-01T12:43:42.652Z,9.20
2018-04-01T12:46:22.007Z,9.40
2018-04-01T12:49:01.356Z,9.30
2018-04-01T12:51:40.764Z,9.70
2018-04-01T12:54:20.007Z,9.60
2018-04-01T12:56:59.396Z,9.90
2018-04-01T12:59:39.215Z,9.70
2018-04-01T13:02:18.525Z,9.40
2018-04-01T13:04:57.942Z,9.30
2018-04-01T13:07:37.213Z,9.10
2018-04-01T13:10:16.610Z,8.30
2018-04-01T13:12:55.868Z,8.00
2018-04-01T13:15:35.304Z,8.00
2018-04-01T13:18:14.641Z,8.00
2018-04-01T13:20:54.864Z,7.90
2018-04-01T13:23:34.329Z,7.30
2018-04-01T13:26:13.708Z,6.80
2018-04-01T13:28:53.719Z,6.60
2018-04-01T13:31:33.169Z,6.50
2018-04-01T13:34:12.655Z,6.60
2018-04-01T13:36:51.999Z,6.90
2018-04-01T13:39:31.284Z,7.30
2018-04-01T13:42:10.582Z,7.70
2018-04-01T13:44:49.909Z,8.00
2018-04-01T13:47:29.284Z,8.50
2018-04-01T13:50:08.735Z,8.70
2018-04-01T13:52:48.821Z,8.40
2018-04-01T13:55:28.099Z,8.40
2018-04-01T13:58:07.546Z,8.40
2018-04-01T14:00:46.853Z,8.20
2018-04-01T14:03:26.333Z,8.20
2018-04-01T14:06:05.599Z,8.10
2018-04-01T14:08:45.010Z,8.20
2018-04-01T14:11:25.027Z,8.20
2018-04-01T14:14:04.327Z,8.10
2018-04-01T14:16:43.797Z,8.10
2018-04-01T14:19:23.054Z,8.10
2018-04-01T14:22:02.429Z,8.00
2018-04-01T14:24:41.755Z,8.00
2018-04-01T14:27:21.244Z,7.90
2018-04-01T14:30:00.503Z,7.80
2018-04-01T14:32:39.985Z,7.80
2018-04-01T14:35:19.222Z,7.80
2018-04-01T14:37:58.628Z,8.10
2018-04-01T14:40:37.871Z,8.50
2018-04-01T14:43:17.314Z,8.40
2018-04-01T14:45:56.618Z,8.50
2018-04-01T14:48:36.624Z,8.80
2018-04-01T14:51:15.988Z,8.80
2018-04-01T14:53:55.450Z,8.80
2018-04-01T14:56:35.713Z,8.20
2018-04-01T14:59:15.036Z,8.20
2018-04-01T15:01:54.480Z,8.10
2018-04-01T15:04:34.587Z,8.20
2018-04-01T15:07:14.008Z,8.10
2018-04-01T15:09:54.386Z,8.20
2018-04-01T15:12:33.842Z,8.30
2018-04-01T15:15:13.148Z,8.20
2018-04-01T15:17:52.547Z,8.10
2018-04-01T15:20:32.653Z,8.70
2018-04-01T15:23:12.094Z,8.60
2018-04-01T15:25:51.425Z,8.70
2018-04-01T15:28:30.786Z,8.70
2018-04-01T15:31:10.180Z,8.50
2018-04-01T15:33:49.614Z,8.50
2018-04-01T15:36:29.001Z,8.70
2018-04-01T15:39:08.244Z,8.50
2018-04-01T15:41:48.429Z,8.40
2018-04-01T15:44:27.769Z,8.40
2018-04-01T15:47:07.285Z,8.50
2018-04-01T15:49:46.572Z,8.40
2018-04-01T15:52:25.986Z,8.30
2018-04-01T15:55:05.222Z,8.30
2018-04-01T15:57:44.703Z,8.20
2018-04-01T16:00:23.963Z,8.10
2018-04-01T16:03:03.291Z,8.00
2018-04-01T16:05:43.489Z,8.10
2018-04-01T16:08:22.843Z,8.00
2018-04-01T16:11:02.185Z,8.10
2018-04-01T16:13:41.677Z,8.10
2018-04-01T16:16:20.944Z,8.00
2018-04-01T16:19:00.347Z,8.10
2018-04-01T16:21:39.686Z,8.10
2018-04-01T16:24:19.292Z,8.10
2018-04-01T16:26:58.728Z,8.10
2018-04-01T16:29:38.990Z,8.10
2018-04-01T16:32:18.316Z,8.10
2018-04-01T16:34:57.779Z,8.10
2018-04-01T16:37:37.002Z,8.20
2018-04-01T16:40:16.281Z,8.20
2018-04-01T16:42:55.668Z,8.20
2018-04-01T16:45:35.869Z,8.20
2018-04-01T16:48:15.234Z,8.10
2018-04-01T16:50:54.684Z,8.10
2018-04-01T16:53:34.705Z,8.10
2018-04-01T16:56:14.136Z,8.10
2018-04-01T16:58:53.661Z,8.10
2018-04-01T17:01:33.007Z,8.00
2018-04-01T17:04:12.239Z,8.00
2018-04-01T17:06:51.673Z,8.00
2018-04-01T17:09:30.951Z,8.00
2018-04-01T17:12:10.330Z,8.00
2018-04-01T17:14:49.583Z,8.00
2018-04-01T17:17:29.017Z,8.00
2018-04-01T17:20:08.312Z,8.00
2018-04-01T17:22:47.576Z,8.00
2018-04-01T17:25:26.833Z,7.90
2018-04-01T17:28:06.315Z,7.90
2018-04-01T17:30:45.587Z,7.90
2018-04-01T17:33:24.973Z,7.90
2018-04-01T17:36:04.910Z,7.90
2018-04-01T17:38:44.262Z,7.90
2018-04-01T17:41:24.341Z,7.90
2018-04-01T17:44:04.026Z,7.90
2018-04-01T17:46:43.298Z,7.90
2018-04-01T17:49:23.341Z,7.80
2018-04-01T17:52:02.581Z,7.80
2018-04-01T17:54:42.777Z,7.80
2018-04-01T17:57:22.149Z,7.80
2018-04-01T18:00:01.464Z,7.80
2018-04-01T18:02:40.834Z,7.80
2018-04-01T18:05:20.137Z,7.80
2018-04-01T18:07:59.652Z,7.80
2018-04-01T18:10:39.151Z,7.70
2018-04-01T18:13:18.412Z,7.80
2018-04-01T18:15:57.841Z,7.80
2018-04-01T18:18:37.149Z,7.70
2018-04-01T18:21:17.365Z,7.70
2018-04-01T18:23:56.674Z,7.60
2018-04-01T18:26:35.910Z,7.70
2018-04-01T18:29:15.202Z,7.60
2018-04-01T18:31:54.521Z,7.70
2018-04-01T18:34:33.818Z,7.60
2018-04-01T18:37:13.215Z,7.60
2018-04-01T18:39:52.630Z,7.60
2018-04-01T18:42:31.929Z,7.60
2018-04-01T18:45:11.311Z,7.50
2018-04-01T18:47:51.371Z,7.40
2018-04-01T18:50:30.724Z,7.40
2018-04-01T18:53:09.970Z,7.30
2018-04-01T18:55:49.426Z,7.20
2018-04-01T18:58:28.683Z,7.10
2018-04-01T19:01:08.208Z,7.10
2018-04-01T19:03:47.652Z,7.00
2018-04-01T19:06:27.015Z,6.90
2018-04-01T19:09:07.074Z,6.80
2018-04-01T19:11:47.168Z,6.80
2018-04-01T19:14:26.497Z,6.80
2018-04-01T19:17:09.784Z,6.80
2018-04-01T19:19:37.367Z,6.80
2018-04-01T19:22:04.940Z,6.80
2018-04-01T19:24:32.477Z,6.70
2018-04-01T19:27:00.008Z,6.80
2018-04-01T19:29:27.592Z,6.80
2018-04-01T19:31:55.913Z,6.80
2018-04-01T19:34:23.450Z,6.80
2018-04-01T19:36:51.015Z,6.80
2018-04-01T19:39:18.629Z,6.90
2018-04-01T19:41:46.942Z,6.90
2018-04-01T19:44:15.296Z,6.90
2018-04-01T19:46:42.853Z,7.00
2018-04-01T19:49:11.145Z,6.90
2018-04-01T19:51:38.662Z,6.90
2018-04-01T19:54:06.214Z,6.80
2018-04-01T19:56:33.761Z,6.70
2018-04-01T19:59:01.281Z,6.60
2018-04-01T20:01:28.816Z,6.70
2018-04-01T20:03:56.350Z,6.60
2018-04-01T20:06:23.893Z,6.60
2018-04-01T20:08:52.269Z,6.60
2018-04-01T20:11:19.819Z,6.60
2018-04-01T20:13:47.431Z,6.60
2018-04-01T20:16:14.932Z,6.60
2018-04-01T20:18:42.452Z,6.60
2018-04-01T20:21:10.767Z,6.50
2018-04-01T20:23:38.319Z,6.50
2018-04-01T20:26:05.841Z,6.50
2018-04-01T20:28:34.185Z,6.50
2018-04-01T20:31:01.778Z,6.50
2018-04-01T20:33:30.104Z,6.60
2018-04-01T20:35:57.624Z,6.50
2018-04-01T20:38:25.187Z,6.50
2018-04-01T20:40:53.457Z,6.50
2018-04-01T20:43:21.765Z,6.50
2018-04-01T20:45:49.292Z,6.50
2018-04-01T20:48:16.824Z,6.50
2018-04-01T20:50:44.381Z,6.50
2018-04-01T20:53:11.960Z,6.50
2018-04-01T20:55:40.272Z,6.50
2018-04-01T20:58:07.832Z,6.50
2018-04-01T21:00:35.400Z,6.50
2018-04-01T21:03:02.954Z,6.50
2018-04-01T21:05:30.601Z,6.50
2018-04-01T21:07:58.156Z,6.50
2018-04-01T21:10:25.694Z,6.50
2018-04-01T21:12:54.110Z,6.60
2018-04-01T21:15:21.648Z,6.60
2018-04-01T21:17:49.177Z,6.60
2018-04-01T21:20:16.733Z,6.60
2018-04-01T21:22:45.795Z,6.50
2018-04-01T21:25:13.352Z,6.50
2018-04-01T21:27:40.910Z,6.60
2018-04-01T21:30:08.462Z,6.50
2018-04-01T21:32:36.047Z,6.50
2018-04-01T21:35:03.577Z,6.50
2018-04-01T21:37:31.152Z,6.50
2018-04-01T21:39:58.701Z,6.50
2018-04-01T21:42:26.267Z,6.50
2018-04-01T21:44:53.808Z,6.40
2018-04-01T21:47:21.382Z,6.30
2018-04-01T21:49:48.916Z,6.30
2018-04-01T21:52:16.451Z,6.30
2018-04-01T21:54:44.771Z,6.40
2018-04-01T21:57:12.322Z,6.30
2018-04-01T21:59:39.885Z,6.30
2018-04-01T22:02:07.412Z,6.30
2018-04-01T22:04:35.688Z,6.30
2018-04-01T22:07:03.217Z,6.30
2018-04-01T22:09:30.757Z,6.30
2018-04-01T22:11:58.290Z,6.30
2018-04-01T22:14:25.857Z,6.30
2018-04-01T22:16:53.438Z,6.30
2018-04-01T22:19:20.974Z,6.30
2018-04-01T22:21:48.483Z,6.30
2018-04-01T22:24:16.058Z,6.30
2018-04-01T22:26:43.594Z,6.20
2018-04-01T22:29:11.107Z,6.10
2018-04-01T22:31:38.664Z,6.10
2018-04-01T22:34:06.214Z,6.10
2018-04-01T22:36:33.739Z,6.00
2018-04-01T22:39:02.057Z,6.10
2018-04-01T22:41:30.412Z,6.10
2018-04-01T22:43:57.946Z,6.20
2018-04-01T22:46:26.266Z,6.20
2018-04-01T22:48:53.848Z,6.10
2018-04-01T22:51:21.382Z,6.10
2018-04-01T22:53:48.934Z,6.10
2018-04-01T22:56:16.484Z,6.10
2018-04-01T22:58:43.993Z,6.10
2018-04-01T23:01:11.528Z,6.10
2018-04-01T23:03:39.078Z,6.10
2018-04-01T23:06:06.613Z,6.10
2018-04-01T23:08:34.123Z,6.10
2018-04-01T23:11:01.648Z,6.00
2018-04-01T23:13:29.195Z,6.10
2018-04-01T23:15:56.714Z,6.10
2018-04-01T23:18:24.237Z,6.00
2018-04-01T23:20:51.786Z,6.00
2018-04-01T23:23:19.359Z,6.00
2018-04-01T23:25:46.879Z,6.10
2018-04-01T23:28:14.405Z,6.10
2018-04-01T23:30:41.941Z,6.10
2018-04-01T23:33:09.467Z,6.10
2018-04-01T23:35:37.032Z,6.00
2018-04-01T23:38:04.574Z,6.00
2018-04-01T23:40:32.140Z,6.00
2018-04-01T23:42:59.749Z,5.90
2018-04-01T23:45:27.306Z,5.90
2018-04-01T23:47:56.330Z,5.90
2018-04-01T23:50:24.639Z,5.90
2018-04-01T23:52:52.206Z,5.90
2018-04-01T23:55:19.749Z,5.90
2018-04-01T23:57:48.122Z,5.90
